sensor_id;sensor_type;location;lat;lon;timestamp;pressure;altitude;pressure_sealevel;temperature;humidity
40982;BME280;26708;50.304;19.028;2023-02-15T00:00:22;99757.00;;;4.28;55.07
40982;BME280;26708;50.304;19.028;2023-02-15T00:02:32;99844.31;;;4.70;55.01
40982;BME280;26708;50.304;19.028;2023-02-15T00:04:38;99753.53;;;4.27;55.18
40982;BME280;26708;50.304;19.028;2023-02-15T00:09:39;99995.13;;;5.61;55.38
40982;BME280;26708;50.304;19.028;2023-02-15T00:11:44;99902.88;;;5.06;55.22
40982;BME280;26708;50.304;19.028;2023-02-15T00:13:55;100055.72;;;5.82;55.30
40982;BME280;26708;50.304;19.028;2023-02-15T00:16:06;99875.91;;;4.82;55.43
40982;BME280;26708;50.304;19.028;2023-02-15T00:18:14;99857.53;;;4.76;55.68
40982;BME280;26708;50.304;19.028;2023-02-15T00:20:21;99749.38;;;4.10;55.69
40982;BME280;26708;50.304;19.028;2023-02-15T00:22:26;99789.06;;;4.30;55.88
40982;BME280;26708;50.304;19.028;2023-02-15T00:24:35;99769.38;;;4.35;56.04
40982;BME280;26708;50.304;19.028;2023-02-15T00:26:46;99717.47;;;4.11;56.02
40982;BME280;26708;50.304;19.028;2023-02-15T00:28:52;100038.47;;;5.84;55.79
40982;BME280;26708;50.304;19.028;2023-02-15T00:31:05;99788.78;;;4.44;55.66
40982;BME280;26708;50.304;19.028;2023-02-15T00:33:19;99795.56;;;4.41;55.41
40982;BME280;26708;50.304;19.028;2023-02-15T00:35:25;100031.31;;;5.78;55.63
40982;BME280;26708;50.304;19.028;2023-02-15T00:37:41;99894.03;;;5.01;55.89
40982;BME280;26708;50.304;19.028;2023-02-15T00:39:49;99704.16;;;4.02;55.92
40982;BME280;26708;50.304;19.028;2023-02-15T00:41:54;99859.88;;;4.90;56.19
40982;BME280;26708;50.304;19.028;2023-02-15T00:44:00;99999.88;;;5.71;56.17
40982;BME280;26708;50.304;19.028;2023-02-15T00:46:06;99875.94;;;5.02;56.04
40982;BME280;26708;50.304;19.028;2023-02-15T00:48:11;99815.59;;;4.65;55.80
40982;BME280;26708;50.304;19.028;2023-02-15T00:50:16;99917.91;;;5.35;55.72
40982;BME280;26708;50.304;19.028;2023-02-15T00:52:23;99835.31;;;4.82;55.77
40982;BME280;26708;50.304;19.028;2023-02-15T00:54:35;99782.41;;;4.57;55.92
40982;BME280;26708;50.304;19.028;2023-02-15T00:56:42;99767.63;;;4.34;55.96
40982;BME280;26708;50.304;19.028;2023-02-15T00:58:48;99908.00;;;5.25;55.86
40982;BME280;26708;50.304;19.028;2023-02-15T01:00:54;99824.59;;;4.73;56.23
40982;BME280;26708;50.304;19.028;2023-02-15T01:02:59;99811.53;;;4.72;56.42
40982;BME280;26708;50.304;19.028;2023-02-15T01:05:06;99702.78;;;4.12;56.12
40982;BME280;26708;50.304;19.028;2023-02-15T01:09:35;99861.72;;;4.93;56.03
40982;BME280;26708;50.304;19.028;2023-02-15T01:11:47;99810.66;;;4.71;56.04
40982;BME280;26708;50.304;19.028;2023-02-15T01:14:12;99863.19;;;4.88;56.31
40982;BME280;26708;50.304;19.028;2023-02-15T01:16:17;99819.81;;;4.63;56.44
40982;BME280;26708;50.304;19.028;2023-02-15T01:18:32;99828.28;;;4.80;56.39
40982;BME280;26708;50.304;19.028;2023-02-15T01:20:41;99717.91;;;4.22;56.47
40982;BME280;26708;50.304;19.028;2023-02-15T01:25:24;99838.09;;;4.87;56.41
40982;BME280;26708;50.304;19.028;2023-02-15T01:27:33;99685.38;;;3.88;56.27
40982;BME280;26708;50.304;19.028;2023-02-15T01:29:45;99993.31;;;5.58;56.57
40982;BME280;26708;50.304;19.028;2023-02-15T01:31:56;99811.56;;;4.51;56.56
40982;BME280;26708;50.304;19.028;2023-02-15T01:34:09;99661.94;;;3.64;56.51
40982;BME280;26708;50.304;19.028;2023-02-15T01:36:23;99881.50;;;4.91;56.63
40982;BME280;26708;50.304;19.028;2023-02-15T01:38:34;99721.50;;;4.05;56.91
40982;BME280;26708;50.304;19.028;2023-02-15T01:40:42;99832.03;;;4.66;57.12
40982;BME280;26708;50.304;19.028;2023-02-15T01:42:55;99918.16;;;4.98;57.39
40982;BME280;26708;50.304;19.028;2023-02-15T01:45:04;99646.78;;;3.53;57.23
40982;BME280;26708;50.304;19.028;2023-02-15T01:47:39;99885.53;;;4.64;57.57
40982;BME280;26708;50.304;19.028;2023-02-15T01:50:01;99751.31;;;3.96;57.82
40982;BME280;26708;50.304;19.028;2023-02-15T01:52:21;99881.28;;;4.66;57.95
40982;BME280;26708;50.304;19.028;2023-02-15T01:55:17;99802.59;;;4.04;58.20
40982;BME280;26708;50.304;19.028;2023-02-15T02:01:31;99638.34;;;2.98;58.88
40982;BME280;26708;50.304;19.028;2023-02-15T02:03:49;99887.41;;;4.47;59.24
40982;BME280;26708;50.304;19.028;2023-02-15T02:06:24;99823.97;;;4.19;59.03
40982;BME280;26708;50.304;19.028;2023-02-15T02:09:12;99667.09;;;3.25;58.85
40982;BME280;26708;50.304;19.028;2023-02-15T02:11:41;99926.06;;;4.82;59.08
40982;BME280;26708;50.304;19.028;2023-02-15T02:14:38;99928.03;;;4.88;59.04
40982;BME280;26708;50.304;19.028;2023-02-15T02:17:18;99843.84;;;4.39;59.04
40982;BME280;26708;50.304;19.028;2023-02-15T02:20:42;99633.56;;;3.07;59.52
40982;BME280;26708;50.304;19.028;2023-02-15T02:27:31;99799.34;;;3.89;59.88
40982;BME280;26708;50.304;19.028;2023-02-15T02:30:40;99632.59;;;3.05;59.92
40982;BME280;26708;50.304;19.028;2023-02-15T02:40:19;99600.22;;;2.94;59.84
40982;BME280;26708;50.304;19.028;2023-02-15T02:43:54;99617.50;;;2.95;60.19
40982;BME280;26708;50.304;19.028;2023-02-15T02:46:30;99609.44;;;2.88;60.36
40982;BME280;26708;50.304;19.028;2023-02-15T02:49:32;99707.84;;;3.68;60.61
40982;BME280;26708;50.304;19.028;2023-02-15T02:59:02;99676.06;;;3.52;60.35
40982;BME280;26708;50.304;19.028;2023-02-15T03:04:09;99736.72;;;3.58;60.91
40982;BME280;26708;50.304;19.028;2023-02-15T03:06:42;99739.06;;;3.52;61.25
40982;BME280;26708;50.304;19.028;2023-02-15T03:09:30;99597.03;;;2.62;61.66
40982;BME280;26708;50.304;19.028;2023-02-15T03:12:20;99880.41;;;4.26;61.96
40982;BME280;26708;50.304;19.028;2023-02-15T03:15:09;99658.03;;;2.96;61.96
40982;BME280;26708;50.304;19.028;2023-02-15T03:20:50;99669.50;;;3.01;62.34
40982;BME280;26708;50.304;19.028;2023-02-15T03:23:06;99741.28;;;3.45;62.33
40982;BME280;26708;50.304;19.028;2023-02-15T03:25:25;99871.53;;;4.21;62.40
40982;BME280;26708;50.304;19.028;2023-02-15T03:27:41;99801.41;;;3.77;62.33
40982;BME280;26708;50.304;19.028;2023-02-15T03:29:58;99715.00;;;2.98;62.59
40982;BME280;26708;50.304;19.028;2023-02-15T03:32:08;99863.69;;;3.99;62.79
40982;BME280;26708;50.304;19.028;2023-02-15T03:34:23;99578.63;;;2.37;62.73
40982;BME280;26708;50.304;19.028;2023-02-15T03:37:00;99598.78;;;2.26;62.82
40982;BME280;26708;50.304;19.028;2023-02-15T03:40:06;99590.47;;;2.32;62.90
40982;BME280;26708;50.304;19.028;2023-02-15T03:42:39;99719.63;;;3.05;62.97
40982;BME280;26708;50.304;19.028;2023-02-15T03:44:51;99817.75;;;3.57;63.27
40982;BME280;26708;50.304;19.028;2023-02-15T03:47:08;99722.22;;;3.05;63.44
40982;BME280;26708;50.304;19.028;2023-02-15T03:49:36;99882.25;;;4.09;63.04
40982;BME280;26708;50.304;19.028;2023-02-15T03:54:27;99710.78;;;3.38;62.67
40982;BME280;26708;50.304;19.028;2023-02-15T03:56:48;99681.06;;;3.09;62.55
40982;BME280;26708;50.304;19.028;2023-02-15T03:59:14;99729.09;;;3.42;62.65
40982;BME280;26708;50.304;19.028;2023-02-15T04:02:10;99716.91;;;3.40;62.29
40982;BME280;26708;50.304;19.028;2023-02-15T04:04:32;99767.97;;;3.63;62.25
40982;BME280;26708;50.304;19.028;2023-02-15T04:06:38;99641.59;;;2.94;62.45
40982;BME280;26708;50.304;19.028;2023-02-15T04:08:44;99846.22;;;3.95;62.59
40982;BME280;26708;50.304;19.028;2023-02-15T04:11:01;99700.66;;;3.23;62.55
40982;BME280;26708;50.304;19.028;2023-02-15T04:13:05;99880.41;;;4.26;62.63
40982;BME280;26708;50.304;19.028;2023-02-15T04:15:12;99836.88;;;3.98;62.54
40982;BME280;26708;50.304;19.028;2023-02-15T04:17:32;99685.59;;;3.15;62.12
40982;BME280;26708;50.304;19.028;2023-02-15T04:19:37;99597.22;;;2.66;62.33
40982;BME280;26708;50.304;19.028;2023-02-15T04:21:56;99586.16;;;2.50;62.64
40982;BME280;26708;50.304;19.028;2023-02-15T04:24:14;99773.44;;;3.50;62.73
40982;BME280;26708;50.304;19.028;2023-02-15T04:26:33;99666.41;;;2.91;62.84
40982;BME280;26708;50.304;19.028;2023-02-15T04:28:44;99777.03;;;3.53;62.72
40982;BME280;26708;50.304;19.028;2023-02-15T04:30:50;99596.69;;;2.54;62.66
40982;BME280;26708;50.304;19.028;2023-02-15T04:33:03;99579.56;;;2.39;62.82
40982;BME280;26708;50.304;19.028;2023-02-15T04:35:15;99700.50;;;3.01;63.08
40982;BME280;26708;50.304;19.028;2023-02-15T04:37:23;99717.53;;;3.15;63.23
40982;BME280;26708;50.304;19.028;2023-02-15T04:39:28;99878.25;;;3.97;63.62
40982;BME280;26708;50.304;19.028;2023-02-15T04:41:34;99696.13;;;2.81;63.80
40982;BME280;26708;50.304;19.028;2023-02-15T04:43:39;99847.66;;;3.70;63.80
40982;BME280;26708;50.304;19.028;2023-02-15T04:45:48;99820.66;;;3.46;63.97
40982;BME280;26708;50.304;19.028;2023-02-15T04:47:54;99693.66;;;2.65;63.95
40982;BME280;26708;50.304;19.028;2023-02-15T04:50:02;99798.19;;;3.26;64.24
40982;BME280;26708;50.304;19.028;2023-02-15T04:52:07;99861.44;;;3.51;64.43
40982;BME280;26708;50.304;19.028;2023-02-15T04:54:13;99743.63;;;2.83;64.49
40982;BME280;26708;50.304;19.028;2023-02-15T04:56:20;99674.91;;;2.34;64.88
40982;BME280;26708;50.304;19.028;2023-02-15T04:58:25;99752.31;;;2.85;64.68
40982;BME280;26708;50.304;19.028;2023-02-15T05:00:30;99883.44;;;3.78;64.57
40982;BME280;26708;50.304;19.028;2023-02-15T05:02:35;99789.53;;;3.25;64.42
40982;BME280;26708;50.304;19.028;2023-02-15T05:04:40;99881.72;;;3.79;64.36
40982;BME280;26708;50.304;19.028;2023-02-15T05:06:49;99870.06;;;3.69;64.47
40982;BME280;26708;50.304;19.028;2023-02-15T05:08:53;99703.81;;;2.80;64.55
40982;BME280;26708;50.304;19.028;2023-02-15T05:11:02;99738.78;;;2.91;64.42
40982;BME280;26708;50.304;19.028;2023-02-15T05:13:12;99750.66;;;3.05;64.32
40982;BME280;26708;50.304;19.028;2023-02-15T05:15:23;99792.00;;;3.22;64.69
40982;BME280;26708;50.304;19.028;2023-02-15T05:17:29;99776.81;;;3.11;64.66
40982;BME280;26708;50.304;19.028;2023-02-15T05:19:35;99816.50;;;3.30;64.72
40982;BME280;26708;50.304;19.028;2023-02-15T05:21:43;99834.00;;;3.36;64.90
40982;BME280;26708;50.304;19.028;2023-02-15T05:23:50;99778.81;;;2.99;65.10
40982;BME280;26708;50.304;19.028;2023-02-15T05:25:56;99851.09;;;3.51;64.99
40982;BME280;26708;50.304;19.028;2023-02-15T05:28:13;99869.06;;;3.66;65.09
40982;BME280;26708;50.304;19.028;2023-02-15T05:30:21;99881.50;;;3.74;64.82
40982;BME280;26708;50.304;19.028;2023-02-15T05:32:26;99875.47;;;3.74;64.81
40982;BME280;26708;50.304;19.028;2023-02-15T05:34:31;99688.44;;;2.64;64.71
40982;BME280;26708;50.304;19.028;2023-02-15T05:36:38;99678.44;;;2.71;64.99
40982;BME280;26708;50.304;19.028;2023-02-15T05:38:45;99871.59;;;3.83;64.83
40982;BME280;26708;50.304;19.028;2023-02-15T05:40:53;99743.34;;;2.96;64.63
40982;BME280;26708;50.304;19.028;2023-02-15T05:43:02;99833.56;;;3.63;64.61
40982;BME280;26708;50.304;19.028;2023-02-15T05:45:08;99601.03;;;2.19;64.23
40982;BME280;26708;50.304;19.028;2023-02-15T05:48:04;99863.19;;;3.70;64.90
40982;BME280;26708;50.304;19.028;2023-02-15T05:52:41;99710.88;;;2.65;64.92
40982;BME280;26708;50.304;19.028;2023-02-15T05:55:00;99837.28;;;3.51;64.80
40982;BME280;26708;50.304;19.028;2023-02-15T05:57:13;99824.47;;;3.54;64.63
40982;BME280;26708;50.304;19.028;2023-02-15T05:59:22;99604.56;;;2.21;64.71
40982;BME280;26708;50.304;19.028;2023-02-15T06:01:32;99667.56;;;2.59;64.86
40982;BME280;26708;50.304;19.028;2023-02-15T06:04:17;99875.41;;;3.91;64.88
40982;BME280;26708;50.304;19.028;2023-02-15T06:06:46;99595.84;;;2.19;64.49
40982;BME280;26708;50.304;19.028;2023-02-15T06:09:40;99744.34;;;3.17;64.48
40982;BME280;26708;50.304;19.028;2023-02-15T06:11:51;99872.31;;;3.99;64.47
40982;BME280;26708;50.304;19.028;2023-02-15T06:14:03;99737.53;;;3.00;64.30
40982;BME280;26708;50.304;19.028;2023-02-15T06:16:19;99720.63;;;2.89;64.56
40982;BME280;26708;50.304;19.028;2023-02-15T06:18:36;99698.28;;;2.72;64.78
40982;BME280;26708;50.304;19.028;2023-02-15T06:20:49;99755.72;;;2.84;64.80
40982;BME280;26708;50.304;19.028;2023-02-15T06:22:56;99584.38;;;1.95;65.17
40982;BME280;26708;50.304;19.028;2023-02-15T06:25:02;99739.53;;;2.88;65.21
40982;BME280;26708;50.304;19.028;2023-02-15T06:27:14;99616.50;;;2.19;64.92
40982;BME280;26708;50.304;19.028;2023-02-15T06:29:25;99763.59;;;2.87;65.11
40982;BME280;26708;50.304;19.028;2023-02-15T06:31:38;99903.16;;;3.57;65.30
40982;BME280;26708;50.304;19.028;2023-02-15T06:33:43;99744.03;;;2.56;65.51
40982;BME280;26708;50.304;19.028;2023-02-15T06:35:51;99871.19;;;3.20;65.84
40982;BME280;26708;50.304;19.028;2023-02-15T06:37:56;99615.72;;;1.67;65.86
40982;BME280;26708;50.304;19.028;2023-02-15T06:40:08;99647.88;;;1.91;66.01
40982;BME280;26708;50.304;19.028;2023-02-15T06:42:35;99761.13;;;2.71;66.03
40982;BME280;26708;50.304;19.028;2023-02-15T06:45:15;99908.94;;;3.52;65.93
40982;BME280;26708;50.304;19.028;2023-02-15T06:48:02;99598.97;;;1.77;65.82
40982;BME280;26708;50.304;19.028;2023-02-15T06:51:06;99602.34;;;1.76;65.70
40982;BME280;26708;50.304;19.028;2023-02-15T06:54:31;99815.06;;;3.18;65.50
40982;BME280;26708;50.304;19.028;2023-02-15T07:01:18;99631.13;;;2.01;65.64
40982;BME280;26708;50.304;19.028;2023-02-15T07:04:27;99593.69;;;1.91;65.69
40982;BME280;26708;50.304;19.028;2023-02-15T07:07:18;99604.88;;;1.92;65.52
40982;BME280;26708;50.304;19.028;2023-02-15T07:12:22;99721.13;;;2.63;65.72
40982;BME280;26708;50.304;19.028;2023-02-15T07:14:51;99759.56;;;2.92;65.88
40982;BME280;26708;50.304;19.028;2023-02-15T07:17:37;99587.41;;;2.04;65.62
40982;BME280;26708;50.304;19.028;2023-02-15T07:20:22;99588.03;;;2.00;65.40
40982;BME280;26708;50.304;19.028;2023-02-15T07:25:56;99698.66;;;2.80;65.51
40982;BME280;26708;50.304;19.028;2023-02-15T07:29:14;99880.00;;;3.98;64.97
40982;BME280;26708;50.304;19.028;2023-02-15T07:34:19;99604.94;;;2.28;64.52
40982;BME280;26708;50.304;19.028;2023-02-15T08:00:18;99849.56;;;4.11;64.28
40982;BME280;26708;50.304;19.028;2023-02-15T08:02:31;99797.19;;;3.79;64.25
40982;BME280;26708;50.304;19.028;2023-02-15T08:07:45;99580.75;;;2.63;63.90
40982;BME280;26708;50.304;19.028;2023-02-15T08:13:50;99716.72;;;3.54;63.69
40982;BME280;26708;50.304;19.028;2023-02-15T08:16:07;99830.88;;;4.18;63.73
40982;BME280;26708;50.304;19.028;2023-02-15T08:18:11;99785.56;;;3.90;63.59
40982;BME280;26708;50.304;19.028;2023-02-15T08:20:16;99849.03;;;4.39;63.63
40982;BME280;26708;50.304;19.028;2023-02-15T08:22:21;99815.53;;;4.23;63.43
40982;BME280;26708;50.304;19.028;2023-02-15T08:24:29;99840.50;;;4.41;63.47
40982;BME280;26708;50.304;19.028;2023-02-15T08:26:36;99825.00;;;4.43;63.68
40982;BME280;26708;50.304;19.028;2023-02-15T08:28:43;99847.22;;;4.57;62.93
40982;BME280;26708;50.304;19.028;2023-02-15T08:30:48;99799.44;;;4.30;62.68
40982;BME280;26708;50.304;19.028;2023-02-15T08:32:55;99816.59;;;4.48;62.73
40982;BME280;26708;50.304;19.028;2023-02-15T08:35:01;99843.47;;;4.71;62.42
40982;BME280;26708;50.304;19.028;2023-02-15T08:37:06;99804.78;;;4.55;62.08
40982;BME280;26708;50.304;19.028;2023-02-15T08:39:11;99840.69;;;4.66;62.00
40982;BME280;26708;50.304;19.028;2023-02-15T08:41:20;99716.88;;;3.98;62.12
40982;BME280;26708;50.304;19.028;2023-02-15T08:43:26;99804.88;;;4.56;61.99
40982;BME280;26708;50.304;19.028;2023-02-15T08:45:31;99840.50;;;4.82;62.26
40982;BME280;26708;50.304;19.028;2023-02-15T08:47:36;99807.38;;;4.75;62.10
40982;BME280;26708;50.304;19.028;2023-02-15T08:49:43;99843.50;;;4.91;61.29
40982;BME280;26708;50.304;19.028;2023-02-15T08:51:49;99841.25;;;4.80;61.56
40982;BME280;26708;50.304;19.028;2023-02-15T08:53:56;99835.69;;;4.71;61.78
40982;BME280;26708;50.304;19.028;2023-02-15T08:56:02;99824.88;;;4.60;62.40
40982;BME280;26708;50.304;19.028;2023-02-15T08:58:06;99822.94;;;4.55;62.80
40982;BME280;26708;50.304;19.028;2023-02-15T09:00:13;99766.22;;;4.21;62.73
40982;BME280;26708;50.304;19.028;2023-02-15T09:02:18;99713.88;;;3.88;62.92
40982;BME280;26708;50.304;19.028;2023-02-15T09:04:23;99821.91;;;4.72;62.97
40982;BME280;26708;50.304;19.028;2023-02-15T09:38:21;99687.88;;;5.13;60.26
40982;BME280;26708;50.304;19.028;2023-02-15T09:42:09;99726.50;;;5.53;59.72
40982;BME280;26708;50.304;19.028;2023-02-15T09:50:29;99794.13;;;6.03;58.73
40982;BME280;26708;50.304;19.028;2023-02-15T09:55:44;99769.03;;;6.03;58.52
40982;BME280;26708;50.304;19.028;2023-02-15T10:00:40;99761.59;;;6.14;58.66
40982;BME280;26708;50.304;19.028;2023-02-15T10:03:30;99702.31;;;5.77;58.45
40982;BME280;26708;50.304;19.028;2023-02-15T10:06:28;99451.31;;;4.28;58.30
40982;BME280;26708;50.304;19.028;2023-02-15T10:09:50;99492.59;;;4.70;57.89
40982;BME280;26708;50.304;19.028;2023-02-15T10:18:58;99758.69;;;6.55;57.32
40982;BME280;26708;50.304;19.028;2023-02-15T10:27:47;99449.53;;;4.99;56.33
40982;BME280;26708;50.304;19.028;2023-02-15T10:30:56;99484.91;;;5.22;56.74
40982;BME280;26708;50.304;19.028;2023-02-15T10:33:43;99457.81;;;5.12;56.46
40982;BME280;26708;50.304;19.028;2023-02-15T10:40:12;99586.84;;;6.21;55.90
40982;BME280;26708;50.304;19.028;2023-02-15T10:42:39;99576.44;;;6.19;55.25
40982;BME280;26708;50.304;19.028;2023-02-15T10:45:45;99430.63;;;5.54;55.18
40982;BME280;26708;50.304;19.028;2023-02-15T10:52:18;99448.34;;;5.67;54.37
40982;BME280;26708;50.304;19.028;2023-02-15T10:54:45;99549.88;;;6.29;54.41
40982;BME280;26708;50.304;19.028;2023-02-15T10:57:24;99575.47;;;6.73;54.23
40982;BME280;26708;50.304;19.028;2023-02-15T11:00:22;99388.56;;;5.66;53.88
40982;BME280;26708;50.304;19.028;2023-02-15T11:03:08;99522.59;;;6.45;53.64
40982;BME280;26708;50.304;19.028;2023-02-15T11:05:41;99689.13;;;7.63;53.90
40982;BME280;26708;50.304;19.028;2023-02-15T11:11:02;99416.94;;;6.16;53.24
40982;BME280;26708;50.304;19.028;2023-02-15T11:13:31;99397.66;;;6.08;53.05
40982;BME280;26708;50.304;19.028;2023-02-15T11:15:51;99576.25;;;7.31;52.63
40982;BME280;26708;50.304;19.028;2023-02-15T11:20:05;99416.78;;;6.42;52.82
40982;BME280;26708;50.304;19.028;2023-02-15T11:26:26;99661.84;;;8.15;52.05
40982;BME280;26708;50.304;19.028;2023-02-15T11:28:49;99398.22;;;6.60;51.87
40982;BME280;26708;50.304;19.028;2023-02-15T11:31:16;99433.88;;;6.96;51.20
40982;BME280;26708;50.304;19.028;2023-02-15T11:34:33;99381.09;;;6.68;51.06
40982;BME280;26708;50.304;19.028;2023-02-15T11:40:23;99523.91;;;7.55;50.85
40982;BME280;26708;50.304;19.028;2023-02-15T11:42:45;99557.66;;;7.84;49.88
40982;BME280;26708;50.304;19.028;2023-02-15T11:45:40;99656.72;;;8.53;49.60
40982;BME280;26708;50.304;19.028;2023-02-15T11:48:21;99637.69;;;8.57;49.45
40982;BME280;26708;50.304;19.028;2023-02-15T11:51:56;99341.84;;;6.91;49.33
40982;BME280;26708;50.304;19.028;2023-02-15T11:54:53;99441.66;;;7.63;48.77
40982;BME280;26708;50.304;19.028;2023-02-15T11:57:31;99637.22;;;8.76;48.91
40982;BME280;26708;50.304;19.028;2023-02-15T12:13:18;99454.59;;;7.96;47.54
40982;BME280;26708;50.304;19.028;2023-02-15T12:16:24;99610.91;;;9.06;47.04
40982;BME280;26708;50.304;19.028;2023-02-15T12:34:19;99612.03;;;9.20;45.96
40982;BME280;26708;50.304;19.028;2023-02-15T12:37:02;99335.66;;;7.60;46.22
40982;BME280;26708;50.304;19.028;2023-02-15T12:39:53;99581.56;;;9.19;46.08
40982;BME280;26708;50.304;19.028;2023-02-15T12:42:41;99313.16;;;7.64;46.28
40982;BME280;26708;50.304;19.028;2023-02-15T12:45:44;99308.81;;;7.63;46.07
40982;BME280;26708;50.304;19.028;2023-02-15T12:48:31;99465.75;;;8.71;45.76
40982;BME280;26708;50.304;19.028;2023-02-15T13:01:33;99415.09;;;8.61;45.28
40982;BME280;26708;50.304;19.028;2023-02-15T13:03:59;99292.91;;;7.92;45.21
40982;BME280;26708;50.304;19.028;2023-02-15T13:06:09;99277.88;;;7.79;45.27
40982;BME280;26708;50.304;19.028;2023-02-15T13:08:37;99416.78;;;8.58;45.41
40982;BME280;26708;50.304;19.028;2023-02-15T13:11:02;99271.16;;;7.90;45.49
40982;BME280;26708;50.304;19.028;2023-02-15T13:13:26;99422.13;;;8.64;45.40
40982;BME280;26708;50.304;19.028;2023-02-15T13:16:02;99547.38;;;9.53;45.31
40982;BME280;26708;50.304;19.028;2023-02-15T13:18:54;99284.34;;;7.99;45.09
40982;BME280;26708;50.304;19.028;2023-02-15T13:21:31;99269.69;;;8.05;44.81
40982;BME280;26708;50.304;19.028;2023-02-15T13:24:05;99348.00;;;8.53;44.88
40982;BME280;26708;50.304;19.028;2023-02-15T13:26:34;99537.88;;;9.58;45.02
40982;BME280;26708;50.304;19.028;2023-02-15T13:29:11;99290.63;;;8.10;45.05
40982;BME280;26708;50.304;19.028;2023-02-15T13:31:29;99329.50;;;8.41;44.83
40982;BME280;26708;50.304;19.028;2023-02-15T13:33:44;99245.38;;;8.06;44.61
40982;BME280;26708;50.304;19.028;2023-02-15T13:36:23;99275.28;;;8.25;44.43
40982;BME280;26708;50.304;19.028;2023-02-15T13:38:49;99518.00;;;9.66;44.44
40982;BME280;26708;50.304;19.028;2023-02-15T13:41:34;99360.38;;;8.66;44.03
40982;BME280;26708;50.304;19.028;2023-02-15T13:44:09;99457.25;;;9.28;44.43
40982;BME280;26708;50.304;19.028;2023-02-15T13:46:45;99249.66;;;8.03;44.22
40982;BME280;26708;50.304;19.028;2023-02-15T13:49:44;99519.69;;;9.64;44.35
40982;BME280;26708;50.304;19.028;2023-02-15T13:59:37;99380.97;;;8.98;44.31
40982;BME280;26708;50.304;19.028;2023-02-15T14:13:53;99502.69;;;9.88;44.24
40982;BME280;26708;50.304;19.028;2023-02-15T14:20:24;99497.50;;;9.91;44.20
40982;BME280;26708;50.304;19.028;2023-02-15T14:34:53;99426.28;;;9.52;44.05
40982;BME280;26708;50.304;19.028;2023-02-15T14:41:23;99483.53;;;9.91;44.05
40982;BME280;26708;50.304;19.028;2023-02-15T14:44:32;99223.28;;;8.31;44.10
40982;BME280;26708;50.304;19.028;2023-02-15T14:51:58;99476.53;;;9.88;43.92
40982;BME280;26708;50.304;19.028;2023-02-15T15:01:29;99353.09;;;8.96;43.46
40982;BME280;26708;50.304;19.028;2023-02-15T15:04:58;99350.66;;;9.06;43.90
40982;BME280;26708;50.304;19.028;2023-02-15T15:22:02;99238.66;;;8.19;42.96
40982;BME280;26708;50.304;19.028;2023-02-15T15:24:57;99389.78;;;9.03;43.12
40982;BME280;26708;50.304;19.028;2023-02-15T15:27:55;99412.66;;;9.18;43.11
40982;BME280;26708;50.304;19.028;2023-02-15T15:31:51;99337.84;;;8.69;43.18
40982;BME280;26708;50.304;19.028;2023-02-15T15:40:17;99386.13;;;8.94;43.78
40982;BME280;26708;50.304;19.028;2023-02-15T15:42:57;99415.22;;;9.15;44.10
40982;BME280;26708;50.304;19.028;2023-02-15T15:45:51;99338.66;;;8.65;44.26
40982;BME280;26708;50.304;19.028;2023-02-15T15:48:28;99445.91;;;9.26;44.65
40982;BME280;26708;50.304;19.028;2023-02-15T15:50:39;99433.38;;;9.09;44.67
40982;BME280;26708;50.304;19.028;2023-02-15T15:52:53;99260.97;;;8.03;44.80
40982;BME280;26708;50.304;19.028;2023-02-15T15:55:15;99413.16;;;8.97;44.99
40982;BME280;26708;50.304;19.028;2023-02-15T15:57:41;99319.19;;;8.47;45.38
40982;BME280;26708;50.304;19.028;2023-02-15T16:00:30;99384.81;;;8.68;45.72
40982;BME280;26708;50.304;19.028;2023-02-15T16:02:50;99223.09;;;7.77;45.62
40982;BME280;26708;50.304;19.028;2023-02-15T16:05:07;99249.66;;;8.01;45.79
40982;BME280;26708;50.304;19.028;2023-02-15T16:07:20;99271.28;;;7.97;45.96
40982;BME280;26708;50.304;19.028;2023-02-15T16:10:01;99456.06;;;9.11;46.21
40982;BME280;26708;50.304;19.028;2023-02-15T16:12:15;99457.75;;;9.09;46.18
40982;BME280;26708;50.304;19.028;2023-02-15T16:14:28;99438.34;;;8.94;46.36
40982;BME280;26708;50.304;19.028;2023-02-15T16:16:50;99175.38;;;7.34;46.56
40982;BME280;26708;50.304;19.028;2023-02-15T16:19:02;99390.69;;;8.56;46.74
40982;BME280;26708;50.304;19.028;2023-02-15T16:21:32;99206.69;;;7.39;46.85
40982;BME280;26708;50.304;19.028;2023-02-15T16:27:36;99463.34;;;8.81;47.36
40982;BME280;26708;50.304;19.028;2023-02-15T16:29:43;99296.91;;;7.77;47.76
40982;BME280;26708;50.304;19.028;2023-02-15T16:32:01;99296.19;;;7.83;47.70
40982;BME280;26708;50.304;19.028;2023-02-15T16:34:32;99460.59;;;8.75;47.87
40982;BME280;26708;50.304;19.028;2023-02-15T16:36:38;99333.88;;;8.00;47.98
40982;BME280;26708;50.304;19.028;2023-02-15T16:41:14;99271.97;;;7.46;48.29
40982;BME280;26708;50.304;19.028;2023-02-15T16:43:31;99471.66;;;8.62;48.50
40982;BME280;26708;50.304;19.028;2023-02-15T16:45:39;99297.63;;;7.70;48.56
40982;BME280;26708;50.304;19.028;2023-02-15T16:47:57;99162.19;;;6.85;48.67
40982;BME280;26708;50.304;19.028;2023-02-15T16:50:30;99427.41;;;8.25;48.90
40982;BME280;26708;50.304;19.028;2023-02-15T16:53:18;99186.50;;;6.86;49.05
40982;BME280;26708;50.304;19.028;2023-02-15T16:55:42;99212.75;;;6.98;49.15
40982;BME280;26708;50.304;19.028;2023-02-15T16:58:03;99281.47;;;7.44;49.47
40982;BME280;26708;50.304;19.028;2023-02-15T17:00:22;99320.03;;;7.62;49.38
40982;BME280;26708;50.304;19.028;2023-02-15T17:02:34;99221.31;;;6.92;49.59
40982;BME280;26708;50.304;19.028;2023-02-15T17:04:41;99260.84;;;7.15;49.59
40982;BME280;26708;50.304;19.028;2023-02-15T17:07:03;99228.47;;;7.02;49.56
40982;BME280;26708;50.304;19.028;2023-02-15T17:11:36;99333.41;;;7.38;49.76
40982;BME280;26708;50.304;19.028;2023-02-15T17:16:32;99355.25;;;7.45;50.04
40982;BME280;26708;50.304;19.028;2023-02-15T17:18:44;99454.63;;;7.99;50.62
40982;BME280;26708;50.304;19.028;2023-02-15T17:20:53;99465.00;;;7.96;50.73
40982;BME280;26708;50.304;19.028;2023-02-15T17:23:01;99463.94;;;7.88;51.01